createdAt,value
2019-04-04T00:01:33.112Z,6.92
2019-04-04T00:04:06.019Z,6.81
2019-04-04T00:06:38.997Z,6.78
2019-04-04T00:09:13.049Z,6.75
2019-04-04T00:11:44.918Z,6.74
2019-04-04T00:14:19.609Z,6.73
2019-04-04T00:16:53.134Z,6.59
2019-04-04T00:19:27.906Z,6.83
2019-04-04T00:22:04.937Z,6.94
2019-04-04T00:24:40.461Z,6.92
2019-04-04T00:27:13.670Z,6.82
2019-04-04T00:29:47.697Z,6.71
2019-04-04T00:32:20.784Z,6.68
2019-04-04T00:34:52.307Z,6.54
2019-04-04T00:37:25.061Z,6.54
2019-04-04T00:39:57.130Z,6.57
2019-04-04T00:42:29.143Z,6.57
2019-04-04T00:45:03.146Z,6.52
2019-04-04T00:47:36.001Z,6.52
2019-04-04T00:50:09.282Z,6.51
2019-04-04T00:52:42.065Z,6.54
2019-04-04T00:55:15.908Z,6.54
2019-04-04T00:57:50.391Z,6.43
2019-04-04T01:00:24.051Z,6.43
2019-04-04T01:02:58.577Z,6.39
2019-04-04T01:05:33.875Z,6.37
2019-04-04T01:08:08.650Z,6.36
2019-04-04T01:10:43.209Z,6.33
2019-04-04T01:13:16.152Z,6.31
2019-04-04T01:15:50.114Z,6.29
2019-04-04T01:18:21.654Z,6.25
2019-04-04T01:20:55.597Z,6.12
2019-04-04T01:23:27.702Z,6.10
2019-04-04T01:26:01.360Z,6.09
2019-04-04T01:28:37.205Z,6.07
2019-04-04T01:31:09.467Z,5.97
2019-04-04T01:33:42.608Z,5.95
2019-04-04T01:36:15.366Z,5.98
2019-04-04T01:38:48.460Z,5.98
2019-04-04T01:41:21.285Z,6.06
2019-04-04T01:44:04.594Z,6.07
2019-04-04T01:46:28.544Z,6.06
2019-04-04T01:49:00.408Z,6.04
2019-04-04T01:51:35.309Z,5.91
2019-04-04T01:54:09.276Z,5.86
2019-04-04T01:56:42.505Z,5.76
2019-04-04T01:59:16.546Z,5.76
2019-04-04T02:01:48.353Z,5.68
2019-04-04T02:04:24.570Z,5.61
2019-04-04T02:07:00.135Z,5.60
2019-04-04T02:09:34.568Z,5.65
2019-04-04T02:12:09.667Z,5.83
2019-04-04T02:14:43.675Z,5.93
2019-04-04T02:17:15.498Z,5.92
2019-04-04T02:19:48.709Z,6.01
2019-04-04T02:22:21.486Z,5.96
2019-04-04T02:24:54.537Z,5.86
2019-04-04T02:27:26.729Z,5.77
2019-04-04T02:30:00.627Z,5.72
2019-04-04T02:32:33.723Z,5.67
2019-04-04T02:35:10.933Z,5.70
2019-04-04T02:37:42.626Z,5.65
2019-04-04T02:40:15.557Z,5.63
2019-04-04T02:42:48.746Z,5.62
2019-04-04T02:45:21.651Z,6.36
2019-04-04T02:47:54.596Z,6.67
2019-04-04T02:50:34.346Z,6.83
2019-04-04T02:53:03.691Z,7.14
2019-04-04T02:55:36.083Z,7.27
2019-04-04T02:58:08.698Z,7.27
2019-04-04T03:00:40.830Z,7.32
2019-04-04T03:03:13.748Z,7.34
2019-04-04T03:05:50.767Z,6.88
2019-04-04T03:08:20.617Z,6.49
2019-04-04T03:10:54.931Z,6.53
2019-04-04T03:13:31.234Z,6.50
2019-04-04T03:16:02.773Z,6.43
2019-04-04T03:18:37.059Z,6.44
2019-04-04T03:21:07.843Z,6.73
2019-04-04T03:23:39.821Z,6.84
2019-04-04T03:26:12.904Z,6.80
2019-04-04T03:28:45.792Z,6.75
2019-04-04T03:31:18.833Z,6.74
2019-04-04T03:33:51.825Z,6.68
2019-04-04T03:36:26.821Z,6.59
2019-04-04T03:38:59.128Z,6.52
2019-04-04T03:41:35.513Z,6.56
2019-04-04T03:44:06.944Z,6.60
2019-04-04T03:46:39.984Z,6.79
2019-04-04T03:49:13.080Z,7.08
2019-04-04T03:51:46.020Z,7.37
2019-04-04T03:54:25.109Z,7.36
2019-04-04T03:56:57.037Z,7.04
2019-04-04T03:59:32.263Z,6.71
2019-04-04T04:02:06.134Z,6.69
2019-04-04T04:04:38.932Z,7.08
2019-04-04T04:07:15.039Z,7.37
2019-04-04T04:09:49.720Z,7.04
2019-04-04T04:12:25.603Z,7.00
2019-04-04T04:14:56.917Z,6.99
2019-04-04T04:17:31.780Z,6.93
2019-04-04T04:20:06.440Z,6.76
2019-04-04T04:22:38.999Z,6.61
2019-04-04T04:25:13.391Z,6.49
2019-04-04T04:27:48.494Z,6.35
2019-04-04T04:30:18.253Z,6.24
2019-04-04T04:32:55.758Z,6.14
2019-04-04T04:35:27.320Z,6.06
2019-04-04T04:38:00.096Z,6.04
2019-04-04T04:40:33.904Z,5.98
2019-04-04T04:43:06.139Z,6.03
2019-04-04T04:45:39.145Z,6.04
2019-04-04T04:48:12.056Z,5.98
2019-04-04T04:50:45.039Z,5.92
2019-04-04T04:53:18.839Z,5.89
2019-04-04T04:55:51.350Z,5.82
2019-04-04T04:58:25.888Z,5.82
2019-04-04T05:00:57.281Z,5.84
2019-04-04T05:03:31.219Z,5.86
2019-04-04T05:06:03.466Z,5.89
2019-04-04T05:08:36.331Z,5.89
2019-04-04T05:11:10.272Z,6.19
2019-04-04T05:13:42.363Z,6.60
2019-04-04T05:16:15.358Z,6.91
2019-04-04T05:18:48.320Z,7.36
2019-04-04T05:21:25.396Z,7.49
2019-04-04T05:23:55.910Z,7.79
2019-04-04T05:26:28.472Z,7.91
2019-04-04T05:28:59.895Z,8.09
2019-04-04T05:31:33.379Z,8.24
2019-04-04T05:34:07.250Z,8.42
2019-04-04T05:36:39.341Z,8.55
2019-04-04T05:39:12.828Z,8.66
2019-04-04T05:41:45.302Z,8.20
2019-04-04T05:44:18.416Z,9.07
2019-04-04T05:46:52.157Z,9.19
2019-04-04T05:49:24.547Z,9.24
2019-04-04T05:51:58.274Z,9.35
2019-04-04T05:54:30.275Z,9.37
2019-04-04T05:57:03.408Z,9.45
2019-04-04T05:59:36.253Z,9.46
2019-04-04T06:02:12.050Z,9.60
2019-04-04T06:04:45.625Z,9.72
2019-04-04T06:07:18.518Z,9.87
2019-04-04T06:09:52.327Z,9.90
2019-04-04T06:12:25.104Z,9.98
2019-04-04T06:15:00.346Z,10.08
2019-04-04T06:17:30.826Z,10.13
2019-04-04T06:20:05.267Z,10.10
2019-04-04T06:22:36.769Z,10.06
2019-04-04T06:25:09.603Z,10.10
2019-04-04T06:27:42.881Z,10.21
2019-04-04T06:30:18.142Z,10.18
2019-04-04T06:32:49.886Z,10.19
2019-04-04T06:35:21.590Z,10.20
2019-04-04T06:37:54.599Z,10.28
2019-04-04T06:40:28.106Z,10.36
2019-04-04T06:43:03.689Z,10.48
2019-04-04T06:45:35.874Z,10.63
2019-04-04T06:48:08.731Z,10.71
2019-04-04T06:50:43.273Z,10.97
2019-04-04T06:53:15.659Z,11.26
2019-04-04T06:55:48.746Z,11.56
2019-04-04T06:58:21.748Z,11.86
2019-04-04T07:00:57.343Z,12.47
2019-04-04T07:03:29.885Z,12.72
2019-04-04T07:06:01.828Z,12.72
2019-04-04T07:08:34.597Z,13.07
2019-04-04T07:11:21.281Z,13.38
2019-04-04T07:13:44.670Z,13.55
2019-04-04T07:16:19.306Z,13.80
2019-04-04T07:18:53.686Z,14.00
2019-04-04T07:21:25.810Z,14.29
2019-04-04T07:23:59.334Z,14.55
2019-04-04T07:26:34.515Z,14.78
2019-04-04T07:29:07.071Z,14.99
2019-04-04T07:31:39.925Z,15.15
2019-04-04T07:34:11.996Z,15.38
2019-04-04T07:36:46.717Z,15.49
2019-04-04T07:39:20.918Z,15.70
2019-04-04T07:41:56.533Z,15.92
2019-04-04T07:44:28.962Z,16.07
2019-04-04T07:47:02.049Z,16.28
2019-04-04T07:49:36.055Z,16.49
2019-04-04T07:52:10.020Z,16.64
2019-04-04T07:54:42.976Z,16.61
2019-04-04T07:57:17.334Z,16.78
2019-04-04T07:59:48.926Z,16.90
2019-04-04T08:02:22.067Z,16.94
2019-04-04T08:04:55.202Z,17.11
2019-04-04T08:07:30.954Z,17.28
2019-04-04T08:10:04.367Z,17.38
2019-04-04T08:12:36.213Z,17.51
2019-04-04T08:15:10.839Z,17.58
2019-04-04T08:17:44.634Z,17.74
2019-04-04T08:20:16.142Z,17.71
2019-04-04T08:22:49.152Z,17.78
2019-04-04T08:25:23.586Z,17.80
2019-04-04T08:27:55.276Z,17.71
2019-04-04T08:30:28.188Z,17.91
2019-04-04T08:32:59.983Z,18.17
2019-04-04T08:35:34.130Z,18.31
2019-04-04T08:38:07.167Z,18.37
2019-04-04T08:40:40.426Z,18.22
2019-04-04T08:43:13.383Z,18.03
2019-04-04T08:45:46.200Z,17.88
2019-04-04T08:48:19.146Z,17.82
2019-04-04T08:50:52.230Z,17.69
2019-04-04T08:53:25.356Z,17.57
2019-04-04T08:55:58.639Z,17.60
2019-04-04T08:58:30.461Z,17.51
2019-04-04T09:01:03.340Z,17.34
2019-04-04T09:03:36.457Z,17.07
2019-04-04T09:06:09.372Z,17.03
2019-04-04T09:08:41.146Z,16.87
2019-04-04T09:11:15.433Z,16.89
2019-04-04T09:13:48.392Z,17.01
2019-04-04T09:16:21.221Z,17.01
2019-04-04T09:18:54.274Z,16.96
2019-04-04T09:21:27.589Z,17.02
2019-04-04T09:24:00.896Z,17.01
2019-04-04T09:26:34.391Z,17.02
2019-04-04T09:29:06.586Z,16.88
2019-04-04T09:31:39.486Z,17.03
2019-04-04T09:34:13.136Z,17.13
2019-04-04T09:36:45.643Z,17.15
2019-04-04T09:39:18.360Z,17.18
2019-04-04T09:41:51.695Z,17.22
2019-04-04T09:44:25.959Z,17.14
2019-04-04T09:47:05.231Z,17.11
2019-04-04T09:49:30.400Z,17.14
2019-04-04T09:52:06.039Z,17.22
2019-04-04T09:54:39.426Z,17.34
2019-04-04T09:57:12.988Z,17.43
2019-04-04T09:59:45.504Z,16.35
2019-04-04T10:02:20.263Z,17.83
2019-04-04T10:04:53.320Z,18.04
2019-04-04T10:07:27.520Z,18.35
2019-04-04T10:10:01.615Z,18.65
2019-04-04T10:12:33.653Z,18.77
2019-04-04T10:15:07.944Z,19.02
2019-04-04T10:17:39.516Z,19.19
2019-04-04T10:20:12.799Z,19.32
2019-04-04T10:22:45.640Z,19.32
2019-04-04T10:25:19.614Z,19.43
2019-04-04T10:27:53.455Z,19.52
2019-04-04T10:30:28.491Z,19.65
2019-04-04T10:33:00.662Z,19.93
2019-04-04T10:35:32.440Z,19.84
2019-04-04T10:38:06.850Z,20.05
2019-04-04T10:40:39.682Z,20.22
2019-04-04T10:43:12.611Z,20.38
2019-04-04T10:45:45.588Z,20.31
2019-04-04T10:48:18.835Z,20.39
2019-04-04T10:50:53.572Z,20.53
2019-04-04T10:53:25.841Z,20.60
2019-04-04T10:55:57.882Z,20.54
2019-04-04T10:58:31.647Z,20.64
2019-04-04T11:01:03.738Z,20.67
2019-04-04T11:03:36.430Z,20.59
2019-04-04T11:06:08.798Z,20.68
2019-04-04T11:08:40.984Z,20.59
2019-04-04T11:11:12.955Z,20.72
2019-04-04T11:13:45.878Z,19.89
2019-04-04T11:16:29.583Z,20.90
2019-04-04T11:18:52.009Z,20.88
2019-04-04T11:21:25.932Z,21.01
2019-04-04T11:23:58.903Z,21.10
2019-04-04T11:26:30.973Z,21.23
2019-04-04T11:29:03.653Z,21.12
2019-04-04T11:31:35.907Z,20.57
2019-04-04T11:34:13.309Z,20.33
2019-04-04T11:36:45.882Z,20.39
2019-04-04T11:39:18.291Z,20.39
2019-04-04T11:41:51.859Z,20.32
2019-04-04T11:44:25.923Z,20.64
2019-04-04T11:46:58.996Z,20.60
2019-04-04T11:49:34.527Z,20.85
2019-04-04T11:52:06.955Z,20.81
2019-04-04T11:54:59.602Z,20.67
2019-04-04T11:57:30.979Z,20.78
2019-04-04T12:00:04.401Z,20.90
2019-04-04T12:02:36.479Z,21.17
2019-04-04T12:05:10.365Z,20.91
2019-04-04T12:07:43.134Z,20.83
2019-04-04T12:10:16.535Z,20.78
2019-04-04T12:12:49.001Z,20.80
2019-04-04T12:15:21.243Z,20.86
2019-04-04T12:17:55.120Z,20.89
2019-04-04T12:20:29.617Z,20.82
2019-04-04T12:23:01.142Z,20.81
2019-04-04T12:25:34.165Z,20.87
2019-04-04T12:28:07.082Z,20.91
2019-04-04T12:30:40.210Z,20.98
2019-04-04T12:33:13.322Z,20.87
2019-04-04T12:35:47.215Z,20.78
2019-04-04T12:38:18.857Z,20.71
2019-04-04T12:40:50.288Z,20.54
2019-04-04T12:43:22.516Z,20.51
2019-04-04T12:45:55.292Z,20.52
2019-04-04T12:48:28.266Z,20.66
2019-04-04T12:51:02.961Z,20.45
2019-04-04T12:53:36.443Z,20.38
2019-04-04T12:56:10.417Z,20.31
2019-04-04T12:58:43.340Z,20.31
2019-04-04T13:01:16.366Z,20.17
2019-04-04T13:03:49.422Z,20.17
2019-04-04T13:06:22.226Z,20.22
2019-04-04T13:08:55.324Z,20.40
2019-04-04T13:11:28.226Z,20.48
2019-04-04T13:14:00.271Z,20.64
2019-04-04T13:16:34.706Z,20.45
2019-04-04T13:19:07.588Z,20.49
2019-04-04T13:21:40.196Z,20.37
2019-04-04T13:24:13.351Z,20.53
2019-04-04T13:26:46.418Z,20.56
2019-04-04T13:29:17.897Z,20.65
2019-04-04T13:31:50.502Z,20.88
2019-04-04T13:34:23.596Z,20.81
2019-04-04T13:36:57.086Z,20.83
2019-04-04T13:39:28.344Z,20.81
2019-04-04T13:42:01.583Z,20.88
2019-04-04T13:44:34.350Z,20.81
2019-04-04T13:47:08.469Z,20.85
2019-04-04T13:49:42.191Z,20.66
2019-04-04T13:52:16.642Z,20.66
2019-04-04T13:54:49.567Z,20.63
2019-04-04T13:57:22.586Z,20.50
2019-04-04T13:59:57.142Z,20.36
2019-04-04T14:02:29.538Z,20.35
2019-04-04T14:05:09.815Z,20.28
2019-04-04T14:07:37.068Z,20.03
2019-04-04T14:10:11.090Z,19.80
2019-04-04T14:12:42.666Z,19.78
2019-04-04T14:15:15.923Z,19.69
2019-04-04T14:17:48.699Z,19.72
2019-04-04T14:20:21.511Z,19.69
2019-04-04T14:22:54.628Z,19.65
2019-04-04T14:25:29.546Z,19.64
2019-04-04T14:28:05.381Z,19.59
2019-04-04T14:30:36.969Z,19.58
2019-04-04T14:33:10.007Z,19.53
2019-04-04T14:35:41.802Z,19.52
2019-04-04T14:38:13.866Z,19.42
2019-04-04T14:40:45.666Z,19.14
2019-04-04T14:43:19.987Z,18.98
2019-04-04T14:45:51.705Z,18.85
2019-04-04T14:48:24.784Z,18.84
2019-04-04T14:50:57.650Z,18.66
2019-04-04T14:53:30.985Z,18.58
2019-04-04T14:56:04.952Z,18.56
2019-04-04T14:58:36.735Z,18.49
2019-04-04T15:01:10.000Z,18.45
2019-04-04T15:03:42.876Z,18.37
2019-04-04T15:06:15.004Z,18.36
2019-04-04T15:08:48.935Z,18.30
2019-04-04T15:11:24.420Z,18.32
2019-04-04T15:13:57.716Z,18.36
2019-04-04T15:16:30.126Z,18.46
2019-04-04T15:19:04.018Z,18.62
2019-04-04T15:21:37.092Z,18.76
2019-04-04T15:24:09.983Z,18.88
2019-04-04T15:26:43.011Z,18.94
2019-04-04T15:29:16.061Z,18.88
2019-04-04T15:31:49.312Z,18.67
2019-04-04T15:34:22.173Z,18.72
2019-04-04T15:36:56.906Z,18.63
2019-04-04T15:39:32.597Z,18.59
2019-04-04T15:42:07.879Z,18.54
2019-04-04T15:44:40.944Z,18.51
2019-04-04T15:47:13.617Z,18.51
2019-04-04T15:49:47.096Z,18.45
2019-04-04T15:52:19.120Z,18.37
2019-04-04T15:54:52.162Z,18.38
2019-04-04T15:57:26.212Z,18.30
2019-04-04T15:59:58.125Z,18.34
2019-04-04T16:02:31.018Z,18.26
2019-04-04T16:05:04.397Z,18.20
2019-04-04T16:07:38.443Z,18.17
2019-04-04T16:10:13.828Z,18.13
2019-04-04T16:12:46.246Z,17.95
2019-04-04T16:15:19.293Z,17.93
2019-04-04T16:17:50.716Z,17.87
2019-04-04T16:20:23.297Z,17.82
2019-04-04T16:22:55.097Z,17.65
2019-04-04T16:25:28.359Z,17.64
2019-04-04T16:28:02.029Z,17.55
2019-04-04T16:30:34.305Z,17.51
2019-04-04T16:33:07.352Z,17.37
2019-04-04T16:35:40.335Z,17.30
2019-04-04T16:38:13.420Z,17.31
2019-04-04T16:40:46.298Z,17.19
2019-04-04T16:43:19.447Z,17.10
2019-04-04T16:45:52.413Z,17.05
2019-04-04T16:48:25.435Z,16.94
2019-04-04T16:50:58.406Z,16.80
2019-04-04T16:53:30.358Z,16.55
2019-04-04T16:56:06.533Z,16.41
2019-04-04T16:58:41.246Z,16.32
2019-04-04T17:01:13.340Z,16.24
2019-04-04T17:04:00.671Z,16.26
2019-04-04T17:06:23.421Z,16.42
2019-04-04T17:08:55.560Z,16.45
2019-04-04T17:11:28.440Z,16.52
2019-04-04T17:14:02.422Z,16.46
2019-04-04T17:16:34.457Z,16.41
2019-04-04T17:19:08.547Z,16.16
2019-04-04T17:21:40.387Z,16.16
2019-04-04T17:24:14.448Z,16.20
2019-04-04T17:26:46.616Z,16.19
2019-04-04T17:29:20.618Z,16.30
2019-04-04T17:31:52.589Z,16.29
2019-04-04T17:34:26.574Z,16.22
2019-04-04T17:36:59.970Z,16.17
2019-04-04T17:39:34.820Z,16.12
2019-04-04T17:42:07.665Z,16.02
2019-04-04T17:44:40.912Z,15.87
2019-04-04T17:47:13.641Z,15.91
2019-04-04T17:49:45.443Z,15.80
2019-04-04T17:52:17.708Z,15.74
2019-04-04T17:54:49.952Z,15.57
2019-04-04T17:57:22.720Z,15.35
2019-04-04T17:59:55.685Z,15.33
2019-04-04T18:02:28.798Z,15.33
2019-04-04T18:05:01.607Z,15.30
2019-04-04T18:07:32.928Z,15.19
2019-04-04T18:10:05.385Z,15.12
2019-04-04T18:12:40.540Z,14.95
2019-04-04T18:15:11.355Z,14.86
2019-04-04T18:17:43.715Z,14.94
2019-04-04T18:20:17.114Z,15.02
2019-04-04T18:22:50.674Z,14.92
2019-04-04T18:25:24.678Z,14.88
2019-04-04T18:27:57.882Z,14.85
2019-04-04T18:30:33.403Z,14.89
2019-04-04T18:33:04.956Z,15.00
2019-04-04T18:35:37.202Z,15.02
2019-04-04T18:38:11.465Z,14.96
2019-04-04T18:40:43.875Z,14.88
2019-04-04T18:43:16.863Z,14.80
2019-04-04T18:45:50.001Z,14.73
2019-04-04T18:48:22.719Z,14.63
2019-04-04T18:50:55.855Z,14.53
2019-04-04T18:53:28.939Z,14.40
2019-04-04T18:56:01.999Z,14.35
2019-04-04T18:58:35.913Z,14.24
2019-04-04T19:01:09.726Z,14.22
2019-04-04T19:03:44.045Z,14.11
2019-04-04T19:06:15.946Z,14.08
2019-04-04T19:08:51.595Z,13.98
2019-04-04T19:11:24.153Z,13.94
2019-04-04T19:13:58.022Z,13.87
2019-04-04T19:16:33.131Z,13.81
2019-04-04T19:19:07.281Z,13.77
2019-04-04T19:21:40.267Z,13.80
2019-04-04T19:24:13.128Z,13.76
2019-04-04T19:26:46.347Z,13.71
2019-04-04T19:29:20.865Z,13.62
2019-04-04T19:31:54.945Z,13.58
2019-04-04T19:34:30.585Z,13.57
2019-04-04T19:37:04.038Z,13.64
2019-04-04T19:39:35.468Z,13.65
2019-04-04T19:42:07.081Z,13.56
2019-04-04T19:44:52.641Z,13.49
2019-04-04T19:47:15.217Z,13.44
2019-04-04T19:49:46.616Z,13.41
2019-04-04T19:52:19.271Z,13.47
2019-04-04T19:54:52.175Z,13.57
2019-04-04T19:57:25.745Z,13.59
2019-04-04T19:59:58.307Z,13.53
2019-04-04T20:02:30.621Z,13.43
2019-04-04T20:05:04.394Z,13.39
2019-04-04T20:07:37.097Z,13.39
2019-04-04T20:10:10.490Z,13.34
2019-04-04T20:12:43.331Z,13.29
2019-04-04T20:15:17.386Z,13.34
2019-04-04T20:17:49.533Z,13.43
2019-04-04T20:20:23.370Z,13.31
2019-04-04T20:22:56.443Z,13.21
2019-04-04T20:25:30.236Z,13.11
2019-04-04T20:28:04.397Z,13.09
2019-04-04T20:30:38.804Z,13.13
2019-04-04T20:33:11.241Z,13.15
2019-04-04T20:35:43.230Z,13.10
2019-04-04T20:38:15.309Z,12.93
2019-04-04T20:40:49.228Z,12.85
2019-04-04T20:43:22.337Z,12.81
2019-04-04T20:45:55.310Z,12.73
2019-04-04T20:48:27.620Z,12.76
2019-04-04T20:51:01.438Z,12.76
2019-04-04T20:53:34.418Z,12.73
2019-04-04T20:56:07.409Z,12.65
2019-04-04T20:58:39.501Z,12.59
2019-04-04T21:01:11.333Z,12.50
2019-04-04T21:03:45.197Z,12.38
2019-04-04T21:06:21.258Z,12.42
2019-04-04T21:08:55.532Z,12.14
2019-04-04T21:11:27.339Z,12.04
2019-04-04T21:14:01.507Z,11.91
2019-04-04T21:16:38.649Z,11.72
2019-04-04T21:19:10.663Z,11.46
2019-04-04T21:21:44.289Z,11.24
2019-04-04T21:24:18.089Z,11.15
2019-04-04T21:26:49.875Z,10.96
2019-04-04T21:29:23.993Z,10.82
2019-04-04T21:32:06.213Z,10.69
2019-04-04T21:34:41.001Z,10.60
2019-04-04T21:37:14.785Z,10.49
2019-04-04T21:39:46.657Z,10.53
2019-04-04T21:42:21.358Z,10.38
2019-04-04T21:44:54.763Z,10.24
2019-04-04T21:47:27.613Z,10.17
2019-04-04T21:50:00.812Z,10.05
2019-04-04T21:52:33.815Z,10.02
2019-04-04T21:55:08.496Z,9.93
2019-04-04T21:57:42.727Z,9.84
2019-04-04T22:00:14.921Z,9.71
2019-04-04T22:02:46.833Z,9.71
2019-04-04T22:05:19.815Z,9.67
2019-04-04T22:07:53.091Z,9.53
2019-04-04T22:10:24.607Z,9.40
2019-04-04T22:12:56.344Z,9.35
2019-04-04T22:15:30.496Z,9.35
2019-04-04T22:18:02.861Z,9.22
2019-04-04T22:20:34.778Z,9.11
2019-04-04T22:23:10.649Z,9.09
2019-04-04T22:25:43.948Z,9.09
2019-04-04T22:28:16.999Z,9.02
2019-04-04T22:30:49.939Z,8.94
2019-04-04T22:33:23.070Z,8.88
2019-04-04T22:35:55.820Z,8.91
2019-04-04T22:38:29.225Z,8.93
2019-04-04T22:41:03.922Z,8.81
2019-04-04T22:43:37.325Z,8.79
2019-04-04T22:46:11.084Z,8.76
2019-04-04T22:48:44.029Z,8.66
2019-04-04T22:51:17.138Z,8.67
2019-04-04T22:53:50.031Z,8.62
2019-04-04T22:56:22.955Z,8.61
2019-04-04T22:58:56.083Z,8.56
2019-04-04T23:01:29.136Z,8.48
2019-04-04T23:04:01.073Z,8.38
2019-04-04T23:06:35.144Z,8.38
2019-04-04T23:09:08.902Z,8.35
2019-04-04T23:11:42.122Z,8.33
2019-04-04T23:14:15.653Z,8.35
2019-04-04T23:16:50.072Z,8.24
2019-04-04T23:19:23.195Z,8.20
2019-04-04T23:21:56.074Z,8.14
2019-04-04T23:24:30.908Z,8.11
2019-04-04T23:27:05.001Z,8.05
2019-04-04T23:29:37.281Z,8.01
2019-04-04T23:32:11.316Z,8.01
2019-04-04T23:34:44.255Z,7.99
2019-04-04T23:37:17.197Z,7.97
2019-04-04T23:39:50.049Z,7.94
2019-04-04T23:42:23.127Z,7.96
2019-04-04T23:45:01.292Z,7.94
2019-04-04T23:47:42.153Z,7.89
2019-04-04T23:50:05.501Z,7.87
2019-04-04T23:52:37.319Z,7.83
2019-04-04T23:55:11.311Z,7.82
2019-04-04T23:57:44.339Z,7.79
